sensor_id;sensor_type;location;lat;lon;timestamp;pressure;altitude;pressure_sealevel;temperature
63220;BMP180;49320;52.512;13.448;2023-05-31T00:01:31;102126.00;;;21.60
63220;BMP180;49320;52.512;13.448;2023-05-31T00:03:58;102122.00;;;21.60
63220;BMP180;49320;52.512;13.448;2023-05-31T00:06:25;102130.00;;;21.60
63220;BMP180;49320;52.512;13.448;2023-05-31T00:08:52;102136.00;;;21.50
63220;BMP180;49320;52.512;13.448;2023-05-31T00:11:19;102127.00;;;21.50
63220;BMP180;49320;52.512;13.448;2023-05-31T00:13:47;102132.00;;;21.40
63220;BMP180;49320;52.512;13.448;2023-05-31T00:16:13;102125.00;;;21.40
63220;BMP180;49320;52.512;13.448;2023-05-31T00:19:00;102125.00;;;21.40
63220;BMP180;49320;52.512;13.448;2023-05-31T00:21:27;102125.00;;;21.30
63220;BMP180;49320;52.512;13.448;2023-05-31T00:23:54;102119.00;;;21.30
63220;BMP180;49320;52.512;13.448;2023-05-31T00:26:21;102120.00;;;21.30
63220;BMP180;49320;52.512;13.448;2023-05-31T00:28:49;102127.00;;;21.20
63220;BMP180;49320;52.512;13.448;2023-05-31T00:31:16;102128.00;;;21.20
63220;BMP180;49320;52.512;13.448;2023-05-31T00:33:45;102114.00;;;21.20
63220;BMP180;49320;52.512;13.448;2023-05-31T00:36:12;102125.00;;;21.20
63220;BMP180;49320;52.512;13.448;2023-05-31T00:38:39;102113.00;;;21.10
63220;BMP180;49320;52.512;13.448;2023-05-31T00:41:10;102117.00;;;21.10
63220;BMP180;49320;52.512;13.448;2023-05-31T00:43:37;102120.00;;;21.10
63220;BMP180;49320;52.512;13.448;2023-05-31T00:46:04;102121.00;;;21.10
63220;BMP180;49320;52.512;13.448;2023-05-31T00:48:32;102128.00;;;21.10
63220;BMP180;49320;52.512;13.448;2023-05-31T00:50:59;102120.00;;;21.10
63220;BMP180;49320;52.512;13.448;2023-05-31T00:53:27;102117.00;;;21.10
63220;BMP180;49320;52.512;13.448;2023-05-31T00:55:54;102113.00;;;21.00
63220;BMP180;49320;52.512;13.448;2023-05-31T00:58:22;102113.00;;;21.00
63220;BMP180;49320;52.512;13.448;2023-05-31T01:00:50;102115.00;;;21.00
63220;BMP180;49320;52.512;13.448;2023-05-31T01:03:18;102129.00;;;21.00
63220;BMP180;49320;52.512;13.448;2023-05-31T01:05:47;102126.00;;;20.90
63220;BMP180;49320;52.512;13.448;2023-05-31T01:08:14;102135.00;;;20.90
63220;BMP180;49320;52.512;13.448;2023-05-31T01:10:41;102133.00;;;20.90
63220;BMP180;49320;52.512;13.448;2023-05-31T01:13:12;102130.00;;;20.90
63220;BMP180;49320;52.512;13.448;2023-05-31T01:15:56;102131.00;;;20.80
63220;BMP180;49320;52.512;13.448;2023-05-31T01:18:40;102118.00;;;20.80
63220;BMP180;49320;52.512;13.448;2023-05-31T01:21:12;102128.00;;;20.70
63220;BMP180;49320;52.512;13.448;2023-05-31T01:26:47;102118.00;;;20.60
63220;BMP180;49320;52.512;13.448;2023-05-31T01:29:19;102121.00;;;20.60
63220;BMP180;49320;52.512;13.448;2023-05-31T01:31:48;102128.00;;;20.50
63220;BMP180;49320;52.512;13.448;2023-05-31T01:34:15;102122.00;;;20.50
63220;BMP180;49320;52.512;13.448;2023-05-31T01:36:42;102121.00;;;20.40
63220;BMP180;49320;52.512;13.448;2023-05-31T01:39:09;102126.00;;;20.40
63220;BMP180;49320;52.512;13.448;2023-05-31T01:41:40;102125.00;;;20.30
63220;BMP180;49320;52.512;13.448;2023-05-31T01:44:10;102126.00;;;20.30
63220;BMP180;49320;52.512;13.448;2023-05-31T01:46:39;102128.00;;;20.30
63220;BMP180;49320;52.512;13.448;2023-05-31T01:49:08;102121.00;;;20.20
63220;BMP180;49320;52.512;13.448;2023-05-31T01:51:37;102125.00;;;20.20
63220;BMP180;49320;52.512;13.448;2023-05-31T01:54:05;102119.00;;;20.20
63220;BMP180;49320;52.512;13.448;2023-05-31T01:56:32;102122.00;;;20.10
63220;BMP180;49320;52.512;13.448;2023-05-31T01:59:00;102129.00;;;20.10
63220;BMP180;49320;52.512;13.448;2023-05-31T02:01:28;102112.00;;;20.10
63220;BMP180;49320;52.512;13.448;2023-05-31T02:03:55;102118.00;;;20.10
63220;BMP180;49320;52.512;13.448;2023-05-31T02:06:22;102130.00;;;20.10
63220;BMP180;49320;52.512;13.448;2023-05-31T02:08:54;102127.00;;;20.10
63220;BMP180;49320;52.512;13.448;2023-05-31T02:11:21;102119.00;;;20.00
63220;BMP180;49320;52.512;13.448;2023-05-31T02:13:49;102127.00;;;20.00
63220;BMP180;49320;52.512;13.448;2023-05-31T02:16:16;102128.00;;;20.00
63220;BMP180;49320;52.512;13.448;2023-05-31T02:18:43;102128.00;;;19.90
63220;BMP180;49320;52.512;13.448;2023-05-31T02:21:11;102129.00;;;19.90
63220;BMP180;49320;52.512;13.448;2023-05-31T02:23:38;102130.00;;;19.80
63220;BMP180;49320;52.512;13.448;2023-05-31T02:26:05;102117.00;;;19.80
63220;BMP180;49320;52.512;13.448;2023-05-31T02:28:32;102118.00;;;19.70
63220;BMP180;49320;52.512;13.448;2023-05-31T02:31:00;102118.00;;;19.70
63220;BMP180;49320;52.512;13.448;2023-05-31T02:33:28;102118.00;;;19.70
63220;BMP180;49320;52.512;13.448;2023-05-31T02:35:55;102114.00;;;19.60
63220;BMP180;49320;52.512;13.448;2023-05-31T02:38:25;102113.00;;;19.60
63220;BMP180;49320;52.512;13.448;2023-05-31T02:40:53;102109.00;;;19.60
63220;BMP180;49320;52.512;13.448;2023-05-31T02:43:20;102104.00;;;19.50
63220;BMP180;49320;52.512;13.448;2023-05-31T02:45:47;102118.00;;;19.50
63220;BMP180;49320;52.512;13.448;2023-05-31T02:48:14;102113.00;;;19.50
63220;BMP180;49320;52.512;13.448;2023-05-31T02:50:40;102122.00;;;19.40
63220;BMP180;49320;52.512;13.448;2023-05-31T02:53:07;102108.00;;;19.40
63220;BMP180;49320;52.512;13.448;2023-05-31T02:55:35;102125.00;;;19.30
63220;BMP180;49320;52.512;13.448;2023-05-31T02:58:04;102107.00;;;19.30
63220;BMP180;49320;52.512;13.448;2023-05-31T03:00:31;102117.00;;;19.30
63220;BMP180;49320;52.512;13.448;2023-05-31T03:02:58;102111.00;;;19.20
63220;BMP180;49320;52.512;13.448;2023-05-31T03:05:25;102106.00;;;19.20
63220;BMP180;49320;52.512;13.448;2023-05-31T03:07:52;102105.00;;;19.20
63220;BMP180;49320;52.512;13.448;2023-05-31T03:10:19;102108.00;;;19.20
63220;BMP180;49320;52.512;13.448;2023-05-31T03:12:46;102110.00;;;19.20
63220;BMP180;49320;52.512;13.448;2023-05-31T03:15:13;102113.00;;;19.20
63220;BMP180;49320;52.512;13.448;2023-05-31T03:17:40;102117.00;;;19.20
63220;BMP180;49320;52.512;13.448;2023-05-31T03:20:08;102119.00;;;19.20
63220;BMP180;49320;52.512;13.448;2023-05-31T03:22:36;102122.00;;;19.10
63220;BMP180;49320;52.512;13.448;2023-05-31T03:25:04;102127.00;;;19.10
63220;BMP180;49320;52.512;13.448;2023-05-31T03:27:31;102128.00;;;19.10
63220;BMP180;49320;52.512;13.448;2023-05-31T03:29:59;102109.00;;;19.10
63220;BMP180;49320;52.512;13.448;2023-05-31T03:32:26;102115.00;;;19.00
63220;BMP180;49320;52.512;13.448;2023-05-31T03:34:53;102111.00;;;19.00
63220;BMP180;49320;52.512;13.448;2023-05-31T03:37:20;102117.00;;;19.00
63220;BMP180;49320;52.512;13.448;2023-05-31T03:39:47;102109.00;;;19.00
63220;BMP180;49320;52.512;13.448;2023-05-31T03:42:14;102117.00;;;19.00
63220;BMP180;49320;52.512;13.448;2023-05-31T03:44:41;102110.00;;;19.00
63220;BMP180;49320;52.512;13.448;2023-05-31T03:47:08;102117.00;;;19.00
63220;BMP180;49320;52.512;13.448;2023-05-31T03:49:35;102114.00;;;19.00
63220;BMP180;49320;52.512;13.448;2023-05-31T03:52:01;102119.00;;;18.90
63220;BMP180;49320;52.512;13.448;2023-05-31T03:54:29;102125.00;;;18.90
63220;BMP180;49320;52.512;13.448;2023-05-31T03:56:57;102106.00;;;18.90
63220;BMP180;49320;52.512;13.448;2023-05-31T03:59:24;102113.00;;;18.90
63220;BMP180;49320;52.512;13.448;2023-05-31T04:01:50;102111.00;;;18.90
63220;BMP180;49320;52.512;13.448;2023-05-31T04:04:17;102110.00;;;18.90
63220;BMP180;49320;52.512;13.448;2023-05-31T04:06:44;102113.00;;;18.90
63220;BMP180;49320;52.512;13.448;2023-05-31T04:09:11;102111.00;;;18.90
63220;BMP180;49320;52.512;13.448;2023-05-31T04:11:38;102106.00;;;18.90
63220;BMP180;49320;52.512;13.448;2023-05-31T04:14:05;102114.00;;;19.00
63220;BMP180;49320;52.512;13.448;2023-05-31T04:16:32;102101.00;;;19.00
63220;BMP180;49320;52.512;13.448;2023-05-31T04:18:58;102103.00;;;19.00
63220;BMP180;49320;52.512;13.448;2023-05-31T04:21:25;102107.00;;;19.10
63220;BMP180;49320;52.512;13.448;2023-05-31T04:23:52;102108.00;;;19.10
63220;BMP180;49320;52.512;13.448;2023-05-31T04:26:19;102103.00;;;19.10
63220;BMP180;49320;52.512;13.448;2023-05-31T04:28:47;102106.00;;;19.20
63220;BMP180;49320;52.512;13.448;2023-05-31T04:31:18;102109.00;;;19.20
63220;BMP180;49320;52.512;13.448;2023-05-31T04:33:46;102103.00;;;19.30
63220;BMP180;49320;52.512;13.448;2023-05-31T04:36:13;102113.00;;;19.30
63220;BMP180;49320;52.512;13.448;2023-05-31T04:38:40;102110.00;;;19.40
63220;BMP180;49320;52.512;13.448;2023-05-31T04:41:07;102111.00;;;19.40
63220;BMP180;49320;52.512;13.448;2023-05-31T04:43:33;102116.00;;;19.50
63220;BMP180;49320;52.512;13.448;2023-05-31T04:46:00;102112.00;;;19.50
63220;BMP180;49320;52.512;13.448;2023-05-31T04:48:27;102111.00;;;19.60
63220;BMP180;49320;52.512;13.448;2023-05-31T04:50:54;102100.00;;;19.60
63220;BMP180;49320;52.512;13.448;2023-05-31T04:53:22;102106.00;;;19.60
63220;BMP180;49320;52.512;13.448;2023-05-31T04:55:50;102110.00;;;19.70
63220;BMP180;49320;52.512;13.448;2023-05-31T04:58:18;102113.00;;;19.80
63220;BMP180;49320;52.512;13.448;2023-05-31T05:00:46;102117.00;;;19.80
63220;BMP180;49320;52.512;13.448;2023-05-31T05:03:13;102107.00;;;19.80
63220;BMP180;49320;52.512;13.448;2023-05-31T05:05:40;102106.00;;;19.90
63220;BMP180;49320;52.512;13.448;2023-05-31T05:08:07;102126.00;;;20.10
63220;BMP180;49320;52.512;13.448;2023-05-31T05:10:34;102114.00;;;20.40
63220;BMP180;49320;52.512;13.448;2023-05-31T05:13:01;102111.00;;;20.80
63220;BMP180;49320;52.512;13.448;2023-05-31T05:15:28;102110.00;;;21.30
63220;BMP180;49320;52.512;13.448;2023-05-31T05:17:55;102107.00;;;21.80
63220;BMP180;49320;52.512;13.448;2023-05-31T05:20:22;102109.00;;;22.30
63220;BMP180;49320;52.512;13.448;2023-05-31T05:22:51;102107.00;;;22.70
63220;BMP180;49320;52.512;13.448;2023-05-31T05:25:21;102106.00;;;23.10
63220;BMP180;49320;52.512;13.448;2023-05-31T05:27:49;102110.00;;;23.50
63220;BMP180;49320;52.512;13.448;2023-05-31T05:30:17;102110.00;;;23.80
63220;BMP180;49320;52.512;13.448;2023-05-31T05:32:44;102111.00;;;24.10
63220;BMP180;49320;52.512;13.448;2023-05-31T05:35:11;102109.00;;;24.30
63220;BMP180;49320;52.512;13.448;2023-05-31T05:37:38;102109.00;;;24.60
63220;BMP180;49320;52.512;13.448;2023-05-31T05:40:05;102111.00;;;24.90
63220;BMP180;49320;52.512;13.448;2023-05-31T05:42:34;102114.00;;;25.10
63220;BMP180;49320;52.512;13.448;2023-05-31T05:45:05;102107.00;;;25.30
63220;BMP180;49320;52.512;13.448;2023-05-31T05:47:35;102106.00;;;25.50
63220;BMP180;49320;52.512;13.448;2023-05-31T05:50:02;102100.00;;;25.70
63220;BMP180;49320;52.512;13.448;2023-05-31T05:52:29;102113.00;;;25.90
63220;BMP180;49320;52.512;13.448;2023-05-31T05:54:56;102108.00;;;26.10
63220;BMP180;49320;52.512;13.448;2023-05-31T05:57:23;102110.00;;;26.30
63220;BMP180;49320;52.512;13.448;2023-05-31T05:59:51;102108.00;;;26.40
63220;BMP180;49320;52.512;13.448;2023-05-31T06:02:19;102111.00;;;26.50
63220;BMP180;49320;52.512;13.448;2023-05-31T06:04:47;102111.00;;;26.50
63220;BMP180;49320;52.512;13.448;2023-05-31T06:07:14;102107.00;;;26.50
63220;BMP180;49320;52.512;13.448;2023-05-31T06:09:41;102103.00;;;26.50
63220;BMP180;49320;52.512;13.448;2023-05-31T06:12:08;102101.00;;;26.60
63220;BMP180;49320;52.512;13.448;2023-05-31T06:14:35;102114.00;;;26.60
63220;BMP180;49320;52.512;13.448;2023-05-31T06:17:02;102109.00;;;26.60
63220;BMP180;49320;52.512;13.448;2023-05-31T06:19:29;102112.00;;;26.60
63220;BMP180;49320;52.512;13.448;2023-05-31T06:21:56;102107.00;;;26.60
63220;BMP180;49320;52.512;13.448;2023-05-31T06:24:24;102112.00;;;26.60
63220;BMP180;49320;52.512;13.448;2023-05-31T06:26:51;102111.00;;;26.70
63220;BMP180;49320;52.512;13.448;2023-05-31T06:29:18;102107.00;;;26.80
63220;BMP180;49320;52.512;13.448;2023-05-31T06:31:45;102109.00;;;26.80
63220;BMP180;49320;52.512;13.448;2023-05-31T06:34:12;102118.00;;;26.90
63220;BMP180;49320;52.512;13.448;2023-05-31T06:36:38;102098.00;;;27.00
63220;BMP180;49320;52.512;13.448;2023-05-31T06:39:06;102106.00;;;27.10
63220;BMP180;49320;52.512;13.448;2023-05-31T06:41:33;102105.00;;;27.10
63220;BMP180;49320;52.512;13.448;2023-05-31T06:44:01;102114.00;;;27.00
63220;BMP180;49320;52.512;13.448;2023-05-31T06:46:28;102106.00;;;27.00
63220;BMP180;49320;52.512;13.448;2023-05-31T06:48:56;102106.00;;;26.90
63220;BMP180;49320;52.512;13.448;2023-05-31T06:51:37;102111.00;;;26.80
63220;BMP180;49320;52.512;13.448;2023-05-31T06:54:13;102102.00;;;26.70
63220;BMP180;49320;52.512;13.448;2023-05-31T06:56:40;102103.00;;;26.60
63220;BMP180;49320;52.512;13.448;2023-05-31T06:59:06;102102.00;;;26.50
63220;BMP180;49320;52.512;13.448;2023-05-31T07:01:34;102098.00;;;26.30
63220;BMP180;49320;52.512;13.448;2023-05-31T07:04:01;102099.00;;;26.20
63220;BMP180;49320;52.512;13.448;2023-05-31T07:06:28;102101.00;;;26.10
63220;BMP180;49320;52.512;13.448;2023-05-31T07:08:56;102100.00;;;26.00
63220;BMP180;49320;52.512;13.448;2023-05-31T07:11:24;102090.00;;;26.00
63220;BMP180;49320;52.512;13.448;2023-05-31T07:13:51;102083.00;;;26.10
63220;BMP180;49320;52.512;13.448;2023-05-31T07:16:18;102084.00;;;26.10
63220;BMP180;49320;52.512;13.448;2023-05-31T07:18:45;102095.00;;;26.10
63220;BMP180;49320;52.512;13.448;2023-05-31T07:21:13;102085.00;;;26.20
63220;BMP180;49320;52.512;13.448;2023-05-31T07:23:40;102081.00;;;26.20
63220;BMP180;49320;52.512;13.448;2023-05-31T07:26:07;102073.00;;;26.20
63220;BMP180;49320;52.512;13.448;2023-05-31T07:28:34;102073.00;;;26.20
63220;BMP180;49320;52.512;13.448;2023-05-31T07:31:01;102069.00;;;26.30
63220;BMP180;49320;52.512;13.448;2023-05-31T07:33:29;102068.00;;;26.30
63220;BMP180;49320;52.512;13.448;2023-05-31T07:35:59;102082.00;;;26.30
63220;BMP180;49320;52.512;13.448;2023-05-31T07:38:29;102081.00;;;26.40
63220;BMP180;49320;52.512;13.448;2023-05-31T07:40:57;102069.00;;;26.50
63220;BMP180;49320;52.512;13.448;2023-05-31T07:43:24;102067.00;;;26.50
63220;BMP180;49320;52.512;13.448;2023-05-31T07:45:52;102069.00;;;26.60
63220;BMP180;49320;52.512;13.448;2023-05-31T07:48:21;102067.00;;;26.70
63220;BMP180;49320;52.512;13.448;2023-05-31T07:50:48;102055.00;;;26.80
63220;BMP180;49320;52.512;13.448;2023-05-31T07:53:15;102057.00;;;26.80
63220;BMP180;49320;52.512;13.448;2023-05-31T07:55:44;102061.00;;;26.90
63220;BMP180;49320;52.512;13.448;2023-05-31T07:58:11;102060.00;;;27.00
63220;BMP180;49320;52.512;13.448;2023-05-31T08:00:39;102058.00;;;27.10
63220;BMP180;49320;52.512;13.448;2023-05-31T08:03:06;102055.00;;;27.20
63220;BMP180;49320;52.512;13.448;2023-05-31T08:05:33;102053.00;;;27.30
63220;BMP180;49320;52.512;13.448;2023-05-31T08:08:00;102070.00;;;27.30
63220;BMP180;49320;52.512;13.448;2023-05-31T08:10:27;102067.00;;;27.30
63220;BMP180;49320;52.512;13.448;2023-05-31T08:12:54;102067.00;;;27.30
63220;BMP180;49320;52.512;13.448;2023-05-31T08:15:21;102067.00;;;27.30
63220;BMP180;49320;52.512;13.448;2023-05-31T08:17:48;102070.00;;;27.30
63220;BMP180;49320;52.512;13.448;2023-05-31T08:20:15;102061.00;;;27.40
63220;BMP180;49320;52.512;13.448;2023-05-31T08:22:44;102055.00;;;27.50
63220;BMP180;49320;52.512;13.448;2023-05-31T08:25:13;102059.00;;;27.70
63220;BMP180;49320;52.512;13.448;2023-05-31T08:27:40;102056.00;;;27.60
63220;BMP180;49320;52.512;13.448;2023-05-31T08:30:11;102050.00;;;27.60
63220;BMP180;49320;52.512;13.448;2023-05-31T08:32:39;102054.00;;;27.60
63220;BMP180;49320;52.512;13.448;2023-05-31T08:35:08;102057.00;;;27.70
63220;BMP180;49320;52.512;13.448;2023-05-31T08:37:39;102051.00;;;27.70
63220;BMP180;49320;52.512;13.448;2023-05-31T08:40:07;102059.00;;;27.80
63220;BMP180;49320;52.512;13.448;2023-05-31T08:42:53;102055.00;;;27.80
63220;BMP180;49320;52.512;13.448;2023-05-31T08:45:25;102062.00;;;27.80
63220;BMP180;49320;52.512;13.448;2023-05-31T08:48:24;102054.00;;;27.70
63220;BMP180;49320;52.512;13.448;2023-05-31T08:50:56;102057.00;;;27.70
63220;BMP180;49320;52.512;13.448;2023-05-31T08:53:24;102051.00;;;27.70
63220;BMP180;49320;52.512;13.448;2023-05-31T08:55:53;102055.00;;;27.70
63220;BMP180;49320;52.512;13.448;2023-05-31T08:58:21;102050.00;;;27.70
63220;BMP180;49320;52.512;13.448;2023-05-31T09:00:49;102051.00;;;27.70
63220;BMP180;49320;52.512;13.448;2023-05-31T09:03:16;102049.00;;;27.80
63220;BMP180;49320;52.512;13.448;2023-05-31T09:05:43;102046.00;;;27.80
63220;BMP180;49320;52.512;13.448;2023-05-31T09:08:10;102048.00;;;27.90
63220;BMP180;49320;52.512;13.448;2023-05-31T09:10:40;102043.00;;;27.90
63220;BMP180;49320;52.512;13.448;2023-05-31T09:13:08;102029.00;;;27.90
63220;BMP180;49320;52.512;13.448;2023-05-31T09:15:36;102032.00;;;28.00
63220;BMP180;49320;52.512;13.448;2023-05-31T09:18:19;102023.00;;;28.00
63220;BMP180;49320;52.512;13.448;2023-05-31T09:20:47;102032.00;;;28.10
63220;BMP180;49320;52.512;13.448;2023-05-31T09:23:17;102033.00;;;28.10
63220;BMP180;49320;52.512;13.448;2023-05-31T09:25:46;102032.00;;;28.10
63220;BMP180;49320;52.512;13.448;2023-05-31T09:28:14;102027.00;;;28.10
63220;BMP180;49320;52.512;13.448;2023-05-31T09:30:43;102026.00;;;28.10
63220;BMP180;49320;52.512;13.448;2023-05-31T09:33:12;102025.00;;;28.20
63220;BMP180;49320;52.512;13.448;2023-05-31T09:35:56;102024.00;;;28.30
63220;BMP180;49320;52.512;13.448;2023-05-31T09:38:32;102013.00;;;28.30
63220;BMP180;49320;52.512;13.448;2023-05-31T09:41:20;102010.00;;;28.30
63220;BMP180;49320;52.512;13.448;2023-05-31T09:43:49;102009.00;;;28.30
63220;BMP180;49320;52.512;13.448;2023-05-31T09:46:21;102005.00;;;28.40
63220;BMP180;49320;52.512;13.448;2023-05-31T09:49:04;101999.00;;;28.50
63220;BMP180;49320;52.512;13.448;2023-05-31T09:51:33;101999.00;;;28.50
63220;BMP180;49320;52.512;13.448;2023-05-31T09:54:02;102002.00;;;28.50
63220;BMP180;49320;52.512;13.448;2023-05-31T09:56:39;102001.00;;;28.50
63220;BMP180;49320;52.512;13.448;2023-05-31T09:59:08;102002.00;;;28.50
63220;BMP180;49320;52.512;13.448;2023-05-31T10:01:36;102002.00;;;28.60
63220;BMP180;49320;52.512;13.448;2023-05-31T10:04:05;101997.00;;;28.60
63220;BMP180;49320;52.512;13.448;2023-05-31T10:06:33;101996.00;;;28.60
63220;BMP180;49320;52.512;13.448;2023-05-31T10:09:05;101989.00;;;28.60
63220;BMP180;49320;52.512;13.448;2023-05-31T10:11:37;101984.00;;;28.70
63220;BMP180;49320;52.512;13.448;2023-05-31T10:14:16;101979.00;;;28.80
63220;BMP180;49320;52.512;13.448;2023-05-31T10:16:54;101989.00;;;28.80
63220;BMP180;49320;52.512;13.448;2023-05-31T10:19:31;101985.00;;;28.90
63220;BMP180;49320;52.512;13.448;2023-05-31T10:22:03;101985.00;;;29.00
63220;BMP180;49320;52.512;13.448;2023-05-31T10:24:51;101978.00;;;29.00
63220;BMP180;49320;52.512;13.448;2023-05-31T10:27:37;101969.00;;;29.10
63220;BMP180;49320;52.512;13.448;2023-05-31T10:30:05;101969.00;;;29.20
63220;BMP180;49320;52.512;13.448;2023-05-31T10:32:42;101977.00;;;29.30
63220;BMP180;49320;52.512;13.448;2023-05-31T10:35:11;101977.00;;;29.40
63220;BMP180;49320;52.512;13.448;2023-05-31T10:37:41;101972.00;;;29.50
63220;BMP180;49320;52.512;13.448;2023-05-31T10:40:41;101964.00;;;29.70
63220;BMP180;49320;52.512;13.448;2023-05-31T10:43:30;101962.00;;;29.80
63220;BMP180;49320;52.512;13.448;2023-05-31T10:46:09;101960.00;;;29.90
63220;BMP180;49320;52.512;13.448;2023-05-31T10:48:53;101960.00;;;29.90
63220;BMP180;49320;52.512;13.448;2023-05-31T10:51:46;101964.00;;;29.90
63220;BMP180;49320;52.512;13.448;2023-05-31T10:54:27;101965.00;;;29.90
63220;BMP180;49320;52.512;13.448;2023-05-31T10:56:57;101957.00;;;29.90
63220;BMP180;49320;52.512;13.448;2023-05-31T10:59:26;101958.00;;;29.90
63220;BMP180;49320;52.512;13.448;2023-05-31T11:01:54;101958.00;;;29.90
63220;BMP180;49320;52.512;13.448;2023-05-31T11:04:24;101959.00;;;29.90
63220;BMP180;49320;52.512;13.448;2023-05-31T11:06:54;101953.00;;;29.90
63220;BMP180;49320;52.512;13.448;2023-05-31T11:09:22;101938.00;;;29.90
63220;BMP180;49320;52.512;13.448;2023-05-31T11:11:50;101940.00;;;29.90
63220;BMP180;49320;52.512;13.448;2023-05-31T11:19:27;101941.00;;;29.90
63220;BMP180;49320;52.512;13.448;2023-05-31T11:22:15;101933.00;;;30.00
63220;BMP180;49320;52.512;13.448;2023-05-31T11:24:54;101935.00;;;30.00
63220;BMP180;49320;52.512;13.448;2023-05-31T11:27:37;101933.00;;;30.00
63220;BMP180;49320;52.512;13.448;2023-05-31T11:30:12;101928.00;;;30.00
63220;BMP180;49320;52.512;13.448;2023-05-31T11:35:10;101921.00;;;30.00
63220;BMP180;49320;52.512;13.448;2023-05-31T11:37:42;101917.00;;;30.10
63220;BMP180;49320;52.512;13.448;2023-05-31T11:40:15;101915.00;;;30.10
63220;BMP180;49320;52.512;13.448;2023-05-31T11:42:44;101920.00;;;30.20
63220;BMP180;49320;52.512;13.448;2023-05-31T11:45:14;101903.00;;;30.30
63220;BMP180;49320;52.512;13.448;2023-05-31T11:50:15;101891.00;;;30.30
63220;BMP180;49320;52.512;13.448;2023-05-31T11:52:45;101896.00;;;30.40
63220;BMP180;49320;52.512;13.448;2023-05-31T11:55:15;101906.00;;;30.50
63220;BMP180;49320;52.512;13.448;2023-05-31T11:57:48;101898.00;;;30.60
63220;BMP180;49320;52.512;13.448;2023-05-31T12:00:19;101889.00;;;30.70
63220;BMP180;49320;52.512;13.448;2023-05-31T12:02:53;101901.00;;;30.80
63220;BMP180;49320;52.512;13.448;2023-05-31T12:05:20;101906.00;;;30.90
63220;BMP180;49320;52.512;13.448;2023-05-31T12:07:54;101891.00;;;30.90
63220;BMP180;49320;52.512;13.448;2023-05-31T12:10:27;101891.00;;;30.90
63220;BMP180;49320;52.512;13.448;2023-05-31T12:12:54;101892.00;;;30.90
63220;BMP180;49320;52.512;13.448;2023-05-31T12:15:29;101888.00;;;30.90
63220;BMP180;49320;52.512;13.448;2023-05-31T12:18:00;101883.00;;;30.90
63220;BMP180;49320;52.512;13.448;2023-05-31T12:20:28;101889.00;;;30.90
63220;BMP180;49320;52.512;13.448;2023-05-31T12:23:13;101882.00;;;30.90
63220;BMP180;49320;52.512;13.448;2023-05-31T12:25:50;101870.00;;;30.90
63220;BMP180;49320;52.512;13.448;2023-05-31T12:28:20;101875.00;;;30.90
63220;BMP180;49320;52.512;13.448;2023-05-31T12:30:50;101872.00;;;30.90
63220;BMP180;49320;52.512;13.448;2023-05-31T12:33:20;101861.00;;;30.80
63220;BMP180;49320;52.512;13.448;2023-05-31T12:35:47;101865.00;;;30.80
63220;BMP180;49320;52.512;13.448;2023-05-31T12:38:14;101859.00;;;30.80
63220;BMP180;49320;52.512;13.448;2023-05-31T12:40:44;101845.00;;;30.70
63220;BMP180;49320;52.512;13.448;2023-05-31T12:43:12;101855.00;;;30.70
63220;BMP180;49320;52.512;13.448;2023-05-31T12:45:41;101852.00;;;30.70
63220;BMP180;49320;52.512;13.448;2023-05-31T12:48:10;101850.00;;;30.70
63220;BMP180;49320;52.512;13.448;2023-05-31T12:50:46;101856.00;;;30.70
63220;BMP180;49320;52.512;13.448;2023-05-31T12:53:13;101848.00;;;30.70
63220;BMP180;49320;52.512;13.448;2023-05-31T12:55:42;101854.00;;;30.80
63220;BMP180;49320;52.512;13.448;2023-05-31T12:58:09;101852.00;;;30.80
63220;BMP180;49320;52.512;13.448;2023-05-31T13:00:37;101846.00;;;30.90
63220;BMP180;49320;52.512;13.448;2023-05-31T13:03:04;101845.00;;;30.90
63220;BMP180;49320;52.512;13.448;2023-05-31T13:05:33;101839.00;;;30.90
63220;BMP180;49320;52.512;13.448;2023-05-31T13:08:00;101829.00;;;30.90
63220;BMP180;49320;52.512;13.448;2023-05-31T13:10:27;101834.00;;;30.90
63220;BMP180;49320;52.512;13.448;2023-05-31T13:12:54;101829.00;;;31.00
63220;BMP180;49320;52.512;13.448;2023-05-31T13:15:21;101834.00;;;31.00
63220;BMP180;49320;52.512;13.448;2023-05-31T13:17:48;101827.00;;;31.00
63220;BMP180;49320;52.512;13.448;2023-05-31T13:20:16;101834.00;;;31.10
63220;BMP180;49320;52.512;13.448;2023-05-31T13:22:43;101822.00;;;31.10
63220;BMP180;49320;52.512;13.448;2023-05-31T13:25:10;101823.00;;;31.20
63220;BMP180;49320;52.512;13.448;2023-05-31T13:27:37;101816.00;;;31.20
63220;BMP180;49320;52.512;13.448;2023-05-31T13:30:08;101813.00;;;31.30
63220;BMP180;49320;52.512;13.448;2023-05-31T13:32:35;101804.00;;;31.30
63220;BMP180;49320;52.512;13.448;2023-05-31T13:35:03;101799.00;;;31.30
63220;BMP180;49320;52.512;13.448;2023-05-31T13:37:31;101793.00;;;31.30
63220;BMP180;49320;52.512;13.448;2023-05-31T13:39:57;101794.00;;;31.30
63220;BMP180;49320;52.512;13.448;2023-05-31T13:42:24;101787.00;;;31.40
63220;BMP180;49320;52.512;13.448;2023-05-31T13:44:51;101788.00;;;31.40
63220;BMP180;49320;52.512;13.448;2023-05-31T13:47:18;101769.00;;;31.40
63220;BMP180;49320;52.512;13.448;2023-05-31T13:49:45;101780.00;;;31.40
63220;BMP180;49320;52.512;13.448;2023-05-31T13:52:12;101774.00;;;31.30
63220;BMP180;49320;52.512;13.448;2023-05-31T13:54:40;101770.00;;;31.30
63220;BMP180;49320;52.512;13.448;2023-05-31T13:57:07;101758.00;;;31.30
63220;BMP180;49320;52.512;13.448;2023-05-31T13:59:34;101764.00;;;31.30
63220;BMP180;49320;52.512;13.448;2023-05-31T14:02:00;101759.00;;;31.40
63220;BMP180;49320;52.512;13.448;2023-05-31T14:04:27;101751.00;;;31.50
63220;BMP180;49320;52.512;13.448;2023-05-31T14:06:55;101748.00;;;31.50
63220;BMP180;49320;52.512;13.448;2023-05-31T14:09:22;101751.00;;;31.50